Aeroporto :
LOGIN :

Iscrizione | Disclaimer

   EN    FR    IT 

 










Sommario :    VFR   VFR Marginale   IFR   IFR Intensivo   IFR Molto Intensivo
Visibilità : 
Base nubi : 
>= 8 km
>= 3000ft
5 / 8 km
1000 / 3000 ft
1500m / 5 km
500 / 1000 ft
800 / 1500m
200 / 500 ft
< 800m
< 200 ft
Simboli :   Temporali  Nebbia  Neve Forte  Precipitazioni Forti  Vento > 20 kt
SIGMETs :   Varie  Temporali  Ghiacco  Turbolenza  Onda orograficha  Ceneri Vulcaniche






- Altitudine del aeroporto : 14 ft
- Codice IATA : BRE


EDDW - Bremen Neuenland

ULTIMO METAR :
  • 050150Z 07005KT CAVOK 02/00 Q0993

METARs OBSOLETI :
  • 050120Z 09006KT CAVOK 02/00 Q0993
  • 050050Z 07004KT CAVOK 02/00 Q0993
  • 050020Z 07005KT CAVOK 02/00 Q0993
  • 042350Z 11002KT CAVOK 02/01 Q0993
  • 042320Z 08003KT 050V120 9999 SCT045 03/01 Q0993

TAF TAF EDDW
Valido dal 05 a 00 ore il 06 a 00 ore UTC


042300Z 0500/0524 10007KT 9999 SCT040
TEMPO 0503/0509 VRB03KT 4500 -RASN
PROB30
TEMPO 0505/0509 1400 -SN BKN004
BECMG 0509/0511 19007KT
BECMG 0518/0520 13003KT
TEMPO 0521/0524 2500 BCFG
PROB30
TEMPO 0522/0524 0700 FG VV002



MetMap, La meteo Aeronautica in un colpo d'occhio ! - Copyright ORBIFLY Dicembre 2007 - Disclaimer

ORBIFLY MET'MAP TEAM :

Programmazione e sviluppo : Alexandra Zaïnal
Concezione : Baudouin d'Aumeries
Aiuto per la programmazione : Marc-Olivier Méhu
Supporto tecnico e logistico : Manuel Goepfert
Aiuto per la traduzione : Arnaldo La Scala

Contatto : metmap@orbifly.com




FONTI E CREDITI :

   NOAA